Time;durP1;ratioP1;P1;durP2;ratioP2;P2;SDS_P1;SDS_P2;PMS_P1;PMS_P2;Temp;Humidity;BMP_temperature;BMP_pressure;BME280_temperature;BME280_humidity;BME280_pressure;Samples;Min_cycle;Max_cycle;Signal;HPM_P1;HPM_P2
2021/03/04 00:00:40;;;;;;;33.10;23.37;;;;;;;7.62;100.00;101395.56;5044171;28;20943;-81
2021/03/04 00:03:46;;;;;;;36.80;25.50;;;;;;;7.58;100.00;101393.97;5055500;28;20547;-80
2021/03/04 00:06:54;;;;;;;35.63;26.20;;;;;;;7.53;100.00;101390.69;5065871;28;20457;-80
2021/03/04 00:10:01;;;;;;;35.90;26.00;;;;;;;7.49;100.00;101384.81;5065941;28;20466;-80
2021/03/04 00:13:08;;;;;;;40.73;24.40;;;;;;;7.49;100.00;101378.81;5062828;28;20459;-80
2021/03/04 00:16:15;;;;;;;36.60;23.13;;;;;;;7.54;100.00;101375.16;5064744;28;20492;-80
2021/03/04 00:19:22;;;;;;;34.80;24.80;;;;;;;7.61;100.00;101381.78;5062689;28;20440;-80
2021/03/04 00:22:30;;;;;;;40.70;25.73;;;;;;;7.72;100.00;101368.47;5060398;28;20602;-80
2021/03/04 00:25:36;;;;;;;39.63;23.97;;;;;;;7.80;100.00;101362.09;5059398;28;20956;-80
2021/03/04 00:28:43;;;;;;;40.97;24.63;;;;;;;7.88;100.00;101359.25;5054440;28;20436;-80
2021/03/04 00:31:50;;;;;;;40.20;24.40;;;;;;;7.93;100.00;101370.25;5050743;28;20436;-79
2021/03/04 00:34:56;;;;;;;43.43;25.17;;;;;;;7.99;100.00;101361.41;5065080;28;20441;-80
2021/03/04 00:38:04;;;;;;;35.10;25.60;;;;;;;8.00;100.00;101365.69;5064774;28;20483;-80
2021/03/04 00:41:11;;;;;;;36.43;24.40;;;;;;;7.94;100.00;101365.91;5065489;28;20452;-80
2021/03/04 00:44:18;;;;;;;40.70;25.67;;;;;;;7.88;100.00;101363.56;5064905;28;20486;-79
2021/03/04 00:47:24;;;;;;;35.10;24.23;;;;;;;7.76;100.00;101360.53;5065057;28;20497;-81
2021/03/04 00:50:31;;;;;;;37.93;22.23;;;;;;;7.68;100.00;101359.16;5066033;28;20520;-80
2021/03/04 00:53:39;;;;;;;32.40;22.53;;;;;;;7.62;100.00;101352.47;5065358;28;20495;-80
2021/03/04 00:56:45;;;;;;;38.57;24.00;;;;;;;7.63;100.00;101346.38;5066263;28;20925;-81
2021/03/04 00:59:52;;;;;;;35.67;23.20;;;;;;;7.64;100.00;101340.34;5065362;28;20444;-80
2021/03/04 01:02:59;;;;;;;38.40;23.63;;;;;;;7.69;100.00;101338.41;5068038;28;20476;-80
2021/03/04 01:06:06;;;;;;;37.33;23.50;;;;;;;7.74;100.00;101336.53;5069206;28;20490;-81
2021/03/04 01:09:14;;;;;;;35.73;23.77;;;;;;;7.78;100.00;101337.25;5069960;28;20463;-80
2021/03/04 01:12:20;;;;;;;39.07;25.67;;;;;;;7.72;100.00;101335.72;5068735;28;20549;-80
2021/03/04 01:15:27;;;;;;;38.50;24.43;;;;;;;7.62;100.00;101328.38;5069703;28;20536;-80
2021/03/04 01:18:34;;;;;;;34.73;23.63;;;;;;;7.57;100.00;101323.38;5069840;28;20464;-81
2021/03/04 01:21:41;;;;;;;41.87;24.53;;;;;;;7.57;100.00;101330.28;5068547;28;20428;-81
2021/03/04 01:24:49;;;;;;;38.97;25.50;;;;;;;7.55;100.00;101327.78;5068363;28;20451;-80
2021/03/04 01:27:55;;;;;;;36.77;26.07;;;;;;;7.54;100.00;101328.66;5068911;28;20452;-80
2021/03/04 01:31:02;;;;;;;41.00;24.60;;;;;;;7.55;100.00;101322.59;5049619;28;20485;-80
2021/03/04 01:34:10;;;;;;;32.40;24.93;;;;;;;7.56;100.00;101321.72;5047559;28;20547;-80
2021/03/04 01:37:18;;;;;;;41.37;26.33;;;;;;;7.61;100.00;101321.53;5048516;28;20507;-81
2021/03/04 01:40:25;;;;;;;39.37;25.33;;;;;;;7.68;100.00;101320.41;5052122;28;20467;-81
2021/03/04 01:43:32;;;;;;;36.43;23.30;;;;;;;7.63;100.00;101310.22;5067873;28;20445;-80
2021/03/04 01:46:39;;;;;;;32.40;23.80;;;;;;;7.60;100.00;101307.78;5069669;28;20476;-80
2021/03/04 01:49:47;;;;;;;37.30;25.47;;;;;;;7.61;100.00;101311.19;5068856;28;20501;-80
2021/03/04 01:52:54;;;;;;;35.30;23.70;;;;;;;7.67;100.00;101319.56;5048788;28;20541;-80
2021/03/04 01:56:02;;;;;;;38.97;23.43;;;;;;;7.74;100.00;101304.69;5048362;28;20458;-80
2021/03/04 01:59:09;;;;;;;30.40;23.13;;;;;;;7.79;100.00;101295.00;5048192;28;20501;-80
2021/03/04 02:02:17;;;;;;;30.57;23.47;;;;;;;7.85;100.00;101293.91;5049037;28;20458;-79
2021/03/04 02:05:24;;;;;;;40.20;24.63;;;;;;;7.91;100.00;101288.50;5060448;28;20424;-81
2021/03/04 02:08:34;;;;;;;34.20;24.90;;;;;;;7.97;100.00;101283.94;5069550;28;20457;-80
2021/03/04 02:11:49;;;;;;;32.67;23.53;;;;;;;8.00;100.00;101270.03;5087016;22;20465;-74
2021/03/04 02:15:02;;;;;;;37.43;26.00;;;;;;;8.08;100.00;101262.84;5052498;28;20425;-74
2021/03/04 02:18:17;;;;;;;38.13;23.67;;;;;;;8.16;100.00;101263.38;5034252;28;20470;-74
2021/03/04 02:21:37;;;;;;;45.60;28.10;;;;;;;8.15;100.00;101248.78;5049023;28;20453;-74
2021/03/04 02:24:52;;;;;;;41.70;27.40;;;;;;;8.05;100.00;101243.09;5039782;28;20433;-74
2021/03/04 02:28:01;;;;;;;38.07;27.70;;;;;;;8.06;100.00;101255.13;5052713;28;20429;-74
2021/03/04 02:31:09;;;;;;;41.60;26.97;;;;;;;8.04;100.00;101251.75;5032057;28;20604;-74
2021/03/04 02:34:19;;;;;;;44.57;29.13;;;;;;;7.96;100.00;101250.41;5048848;28;20421;-75
2021/03/04 02:37:30;;;;;;;34.73;26.00;;;;;;;7.95;100.00;101252.16;5040845;28;20437;-74
2021/03/04 02:40:39;;;;;;;44.17;28.43;;;;;;;7.98;100.00;101252.03;5049072;28;20516;-74
2021/03/04 02:43:47;;;;;;;43.53;26.87;;;;;;;7.94;100.00;101247.03;5051886;28;20476;-74
2021/03/04 02:46:54;;;;;;;38.13;26.50;;;;;;;7.92;100.00;101254.03;5052900;28;20441;-74
2021/03/04 02:50:01;;;;;;;40.70;26.60;;;;;;;7.89;100.00;101242.03;5052519;28;20539;-74
2021/03/04 02:53:08;;;;;;;36.23;25.77;;;;;;;7.89;100.00;101251.53;5052310;28;20429;-75
2021/03/04 02:56:15;;;;;;;37.73;26.80;;;;;;;7.88;100.00;101240.38;5051616;28;20567;-74
2021/03/04 02:59:24;;;;;;;36.57;27.37;;;;;;;7.83;100.00;101223.34;5052907;28;20436;-74
2021/03/04 03:02:31;;;;;;;40.37;27.20;;;;;;;7.72;100.00;101229.81;5050811;28;20444;-74
2021/03/04 03:05:41;;;;;;;36.63;26.43;;;;;;;7.60;100.00;101225.13;5032827;28;20938;-74
2021/03/04 03:08:48;;;;;;;39.80;27.43;;;;;;;7.44;100.00;101231.78;5032451;28;20434;-74
2021/03/04 03:11:55;;;;;;;41.10;26.70;;;;;;;7.35;100.00;101232.09;5031684;28;20472;-74
2021/03/04 03:15:06;;;;;;;44.30;29.10;;;;;;;7.28;100.00;101220.31;5032546;28;20441;-74
2021/03/04 03:18:13;;;;;;;36.40;26.43;;;;;;;7.25;100.00;101217.88;5048395;28;20927;-74
2021/03/04 03:21:20;;;;;;;43.77;25.23;;;;;;;7.31;100.00;101213.31;5051120;28;20461;-76
2021/03/04 03:24:26;;;;;;;35.60;26.07;;;;;;;7.36;100.00;101215.72;5050116;28;20474;-76
2021/03/04 03:27:33;;;;;;;43.30;26.63;;;;;;;7.44;100.00;101212.84;5052222;28;20448;-74
2021/03/04 03:30:41;;;;;;;43.90;29.03;;;;;;;7.48;100.00;101209.25;5052020;28;20618;-74
2021/03/04 03:33:48;;;;;;;40.03;29.53;;;;;;;7.49;100.00;101204.03;5048495;28;20421;-74
2021/03/04 03:36:56;;;;;;;49.47;29.20;;;;;;;7.48;100.00;101199.75;5051517;28;20783;-74
2021/03/04 03:40:05;;;;;;;43.90;28.60;;;;;;;7.46;100.00;101188.63;5055498;28;20464;-74
2021/03/04 03:43:14;;;;;;;45.63;28.33;;;;;;;7.44;100.00;101179.28;5038658;28;20498;-74
2021/03/04 03:46:23;;;;;;;46.10;29.80;;;;;;;7.38;100.00;101170.88;5050991;28;20898;-74
2021/03/04 03:49:31;;;;;;;40.40;27.70;;;;;;;7.33;100.00;101164.19;5050611;28;20437;-74
2021/03/04 03:52:38;;;;;;;46.87;31.43;;;;;;;7.30;100.00;101167.75;5050609;28;21021;-74
2021/03/04 03:55:46;;;;;;;45.90;29.07;;;;;;;7.23;100.00;101168.03;5053862;28;20949;-74
2021/03/04 03:58:54;;;;;;;45.10;29.30;;;;;;;7.21;100.00;101167.25;5031974;28;20799;-74
2021/03/04 04:02:02;;;;;;;44.03;30.10;;;;;;;7.18;100.00;101173.38;5045572;28;20480;-74
2021/03/04 04:05:09;;;;;;;46.50;31.97;;;;;;;7.26;100.00;101175.66;5051622;28;20452;-74
2021/03/04 04:08:18;;;;;;;49.63;31.00;;;;;;;7.31;100.00;101169.44;5065587;28;20524;-74
2021/03/04 04:11:26;;;;;;;48.57;32.47;;;;;;;7.34;100.00;101174.47;5071275;28;20468;-74
2021/03/04 04:14:32;;;;;;;43.47;31.73;;;;;;;7.44;100.00;101177.53;5071119;28;20460;-74
2021/03/04 04:17:40;;;;;;;49.87;30.63;;;;;;;7.52;100.00;101175.47;5071132;28;20515;-74
2021/03/04 04:20:47;;;;;;;41.90;30.17;;;;;;;7.57;100.00;101164.97;5056329;28;20475;-74
2021/03/04 04:23:55;;;;;;;42.10;29.80;;;;;;;7.62;100.00;101151.00;5031493;28;20797;-74
2021/03/04 04:27:01;;;;;;;45.87;30.33;;;;;;;7.66;100.00;101151.69;5031697;28;20496;-74
2021/03/04 04:30:10;;;;;;;41.03;29.60;;;;;;;7.72;100.00;101152.28;5032147;28;20454;-74
2021/03/04 04:33:18;;;;;;;51.80;32.10;;;;;;;7.76;100.00;101148.66;5030173;28;20897;-74
2021/03/04 04:36:25;;;;;;;47.13;31.13;;;;;;;7.79;100.00;101148.56;5049647;28;20436;-74
2021/03/04 04:39:31;;;;;;;46.40;29.60;;;;;;;7.84;100.00;101139.78;5074593;28;20436;-74
2021/03/04 04:42:38;;;;;;;46.30;30.07;;;;;;;7.87;100.00;101129.28;5072910;28;20547;-74
2021/03/04 04:45:45;;;;;;;41.80;30.33;;;;;;;7.77;100.00;101129.69;5075771;28;21235;-74
2021/03/04 04:48:53;;;;;;;41.40;29.57;;;;;;;7.76;100.00;101119.41;5075018;28;20515;-74
2021/03/04 04:51:59;;;;;;;49.23;32.10;;;;;;;7.70;100.00;101123.09;5057631;28;20457;-74
2021/03/04 04:55:07;;;;;;;47.10;29.80;;;;;;;7.67;100.00;101125.81;5055201;28;20444;-74
2021/03/04 04:58:14;;;;;;;43.93;29.07;;;;;;;7.62;100.00;101126.91;5054835;28;20460;-74
2021/03/04 05:01:20;;;;;;;40.37;28.73;;;;;;;7.66;100.00;101126.72;5044547;28;20460;-74
2021/03/04 05:04:28;;;;;;;42.60;30.07;;;;;;;7.71;100.00;101118.75;5052799;28;20416;-74
2021/03/04 05:07:35;;;;;;;40.90;27.53;;;;;;;7.75;100.00;101110.81;5055726;28;20487;-74
2021/03/04 05:10:42;;;;;;;40.17;29.13;;;;;;;7.85;100.00;101110.44;5070675;28;20508;-75
2021/03/04 05:13:49;;;;;;;43.40;31.13;;;;;;;7.88;100.00;101105.13;5051643;28;20504;-75
2021/03/04 05:16:56;;;;;;;45.57;30.20;;;;;;;7.92;100.00;101107.56;5054765;28;20487;-74
2021/03/04 05:20:06;;;;;;;48.40;30.47;;;;;;;7.98;100.00;101088.38;5053776;28;20433;-74
2021/03/04 05:23:13;;;;;;;46.87;31.67;;;;;;;7.99;100.00;101097.78;5053959;28;20550;-74
2021/03/04 05:26:19;;;;;;;40.17;30.17;;;;;;;8.00;100.00;101095.13;5054618;28;20516;-74
2021/03/04 05:29:26;;;;;;;41.40;31.30;;;;;;;8.04;100.00;101098.44;5054327;28;20461;-74
2021/03/04 05:32:33;;;;;;;42.60;31.10;;;;;;;8.05;100.00;101097.50;5053099;28;20441;-74
2021/03/04 05:35:41;;;;;;;44.60;31.07;;;;;;;8.07;100.00;101091.38;5054412;28;20942;-74
2021/03/04 05:38:48;;;;;;;51.83;33.13;;;;;;;8.10;100.00;101095.59;5053955;28;20516;-74
2021/03/04 05:41:57;;;;;;;45.27;31.40;;;;;;;8.12;100.00;101091.19;5052998;28;20863;-75
2021/03/04 05:45:05;;;;;;;41.33;30.20;;;;;;;8.18;100.00;101080.56;5054180;28;20461;-74
2021/03/04 05:48:12;;;;;;;40.13;30.10;;;;;;;8.15;100.00;101078.97;5052994;28;20465;-74
2021/03/04 05:51:25;;;;;;;53.83;31.87;;;;;;;8.16;100.00;101077.22;5052995;28;20564;-75
2021/03/04 05:54:36;;;;;;;42.33;31.57;;;;;;;8.19;100.00;101079.66;5053238;28;20840;-74
2021/03/04 05:57:45;;;;;;;45.10;31.63;;;;;;;8.27;100.00;101080.19;5052833;28;21165;-74
2021/03/04 06:00:52;;;;;;;44.07;31.47;;;;;;;8.32;100.00;101088.59;5053777;28;20968;-75
2021/03/04 06:03:59;;;;;;;47.00;33.20;;;;;;;8.40;100.00;101098.63;5051656;28;20464;-74
2021/03/04 06:07:07;;;;;;;43.53;31.70;;;;;;;8.49;100.00;101082.69;5054375;28;20472;-76
2021/03/04 06:10:15;;;;;;;40.23;28.30;;;;;;;8.56;100.00;101087.53;5054362;28;20488;-77
2021/03/04 06:13:22;;;;;;;44.90;30.40;;;;;;;8.55;100.00;101077.22;5052725;28;20937;-76
2021/03/04 06:16:28;;;;;;;36.83;27.70;;;;;;;8.48;100.00;101074.09;5054328;28;20432;-77
2021/03/04 06:19:35;;;;;;;43.33;30.40;;;;;;;8.40;100.00;101068.41;5051474;28;20981;-76
2021/03/04 06:22:47;;;;;;;43.63;29.43;;;;;;;8.37;100.00;101054.78;5032935;28;20458;-76
2021/03/04 06:25:53;;;;;;;44.93;29.93;;;;;;;8.39;100.00;101060.72;5033395;28;20429;-76
2021/03/04 06:29:11;;;;;;;41.40;29.27;;;;;;;8.37;100.00;101067.72;5033190;28;20488;-76
2021/03/04 06:32:22;;;;;;;47.37;32.97;;;;;;;8.35;100.00;101091.03;5032264;28;20529;-76
2021/03/04 06:35:34;;;;;;;49.63;32.93;;;;;;;8.39;100.00;101130.56;5029618;28;20442;-76
2021/03/04 06:38:53;;;;;;;51.90;34.93;;;;;;;8.27;100.00;101150.00;5032466;28;20462;-76
2021/03/04 06:42:01;;;;;;;53.63;35.70;;;;;;;8.14;100.00;101130.75;5031478;28;20454;-76
2021/03/04 06:45:21;;;;;;;52.77;37.37;;;;;;;8.04;100.00;101135.44;5031534;28;20441;-76
2021/03/04 06:48:28;;;;;;;56.60;39.33;;;;;;;7.94;100.00;101139.31;5033074;28;20426;-75
2021/03/04 06:51:42;;;;;;;57.53;40.77;;;;;;;7.93;100.00;101139.38;5031124;28;20462;-76
2021/03/04 06:54:50;;;;;;;67.20;42.70;;;;;;;7.91;100.00;101133.44;5031334;28;20461;-76
2021/03/04 06:58:01;;;;;;;74.10;45.60;;;;;;;7.92;100.00;101132.56;5032294;28;20434;-76
2021/03/04 07:01:09;;;;;;;70.97;47.10;;;;;;;7.89;100.00;101130.09;5030834;28;20494;-76
2021/03/04 07:04:16;;;;;;;62.47;44.43;;;;;;;7.90;100.00;101124.84;5031396;28;20426;-76
2021/03/04 07:07:25;;;;;;;66.60;44.77;;;;;;;7.87;100.00;101119.81;5032189;28;20433;-76
2021/03/04 07:10:33;;;;;;;65.27;45.83;;;;;;;7.82;100.00;101121.75;5032317;28;20528;-76
2021/03/04 07:13:41;;;;;;;74.57;49.60;;;;;;;7.73;100.00;101104.88;5028939;28;20458;-76
2021/03/04 07:16:48;;;;;;;75.37;48.97;;;;;;;7.78;100.00;101094.34;5030796;28;20843;-76
2021/03/04 07:20:01;;;;;;;83.17;49.93;;;;;;;7.82;100.00;101100.22;5032012;28;20521;-76
2021/03/04 07:23:10;;;;;;;75.03;49.80;;;;;;;7.88;100.00;101103.41;5030516;28;20426;-76
2021/03/04 07:26:18;;;;;;;78.10;48.77;;;;;;;7.94;100.00;101107.47;5031920;28;20433;-76
2021/03/04 07:29:25;;;;;;;72.57;48.90;;;;;;;7.99;100.00;101115.88;5030431;28;20461;-76
2021/03/04 07:32:32;;;;;;;76.27;47.10;;;;;;;8.03;100.00;101089.84;5031896;28;20477;-76
2021/03/04 07:35:39;;;;;;;67.27;47.17;;;;;;;8.06;100.00;101075.94;5032147;28;20445;-76
2021/03/04 07:38:53;;;;;;;70.57;46.10;;;;;;;8.05;100.00;101076.81;5030284;28;20430;-76
2021/03/04 07:42:01;;;;;;;64.17;44.97;;;;;;;8.12;100.00;101084.25;5030009;28;20442;-76
2021/03/04 07:45:12;;;;;;;62.20;42.57;;;;;;;8.27;100.00;101077.59;5029962;28;20430;-76
2021/03/04 07:48:19;;;;;;;70.87;47.10;;;;;;;8.34;100.00;101067.84;5030234;28;20460;-76
2021/03/04 07:51:27;;;;;;;58.23;41.53;;;;;;;8.44;100.00;101051.00;5027586;28;20492;-76
2021/03/04 07:54:36;;;;;;;56.10;42.20;;;;;;;8.49;100.00;101062.84;5031741;28;20806;-76
2021/03/04 07:57:46;;;;;;;52.57;38.40;;;;;;;8.58;100.00;101056.38;5030342;28;20808;-76
2021/03/04 08:00:53;;;;;;;52.10;37.20;;;;;;;8.68;100.00;101069.75;5031263;28;20461;-76
2021/03/04 08:04:01;;;;;;;46.33;36.60;;;;;;;8.75;100.00;101071.16;5030716;28;20517;-76
2021/03/04 08:07:08;;;;;;;46.67;37.67;;;;;;;8.75;100.00;101076.34;5031382;28;20879;-76
2021/03/04 08:10:16;;;;;;;45.63;36.97;;;;;;;8.78;100.00;101081.34;5030777;28;20430;-76
2021/03/04 08:13:31;;;;;;;44.10;36.27;;;;;;;8.78;100.00;101078.78;5046355;28;20424;-76
2021/03/04 08:16:37;;;;;;;46.70;36.70;;;;;;;8.82;100.00;101080.28;5051970;28;20520;-76
2021/03/04 08:19:45;;;;;;;49.23;37.27;;;;;;;8.93;100.00;101080.66;5046068;28;20916;-76
2021/03/04 08:22:54;;;;;;;48.97;38.60;;;;;;;9.06;100.00;101081.75;5030864;28;20449;-76
2021/03/04 08:26:02;;;;;;;47.23;36.90;;;;;;;9.17;100.00;101082.09;5031206;28;20442;-76
2021/03/04 08:29:12;;;;;;;45.27;36.13;;;;;;;9.22;100.00;101084.47;5031853;28;20422;-76
2021/03/04 08:32:18;;;;;;;43.73;35.93;;;;;;;9.32;100.00;101078.75;5030529;28;20501;-76
2021/03/04 08:35:25;;;;;;;45.33;36.33;;;;;;;9.43;100.00;101080.81;5031722;28;20426;-76
2021/03/04 08:38:38;;;;;;;48.80;38.83;;;;;;;9.47;100.00;101076.34;5031468;28;20845;-76
2021/03/04 08:41:46;;;;;;;45.57;36.40;;;;;;;9.49;100.00;101084.88;5031302;28;21030;-77
2021/03/04 08:44:53;;;;;;;49.83;38.60;;;;;;;9.42;100.00;101087.75;5030291;28;20443;-76
2021/03/04 08:48:04;;;;;;;45.53;35.77;;;;;;;9.42;100.00;101077.41;5031005;28;20430;-76
2021/03/04 08:51:16;;;;;;;49.77;38.80;;;;;;;9.39;100.00;101074.97;5031174;28;20485;-76
2021/03/04 08:54:25;;;;;;;52.67;40.47;;;;;;;9.34;100.00;101076.94;5030803;28;20509;-76
2021/03/04 08:57:33;;;;;;;56.60;42.63;;;;;;;9.30;100.00;101070.22;5031413;28;20525;-76
2021/03/04 09:00:47;;;;;;;59.60;44.70;;;;;;;9.18;100.00;101062.19;5031511;28;20430;-76
2021/03/04 09:03:54;;;;;;;60.37;43.00;;;;;;;9.09;100.00;101071.25;5030663;28;20528;-77
2021/03/04 09:07:03;;;;;;;58.53;42.20;;;;;;;9.09;100.00;101060.06;5031399;28;20881;-76
2021/03/04 09:10:11;;;;;;;57.30;41.67;;;;;;;9.05;100.00;101061.97;5031275;28;20438;-76
2021/03/04 09:13:20;;;;;;;58.77;42.50;;;;;;;9.18;100.00;101049.25;5030688;28;20441;-76
2021/03/04 09:16:27;;;;;;;61.10;43.40;;;;;;;9.39;100.00;101054.25;5031423;28;20441;-76
2021/03/04 09:19:39;;;;;;;57.30;40.40;;;;;;;9.44;100.00;101056.59;5031693;28;20531;-76
2021/03/04 09:22:45;;;;;;;66.67;44.40;;;;;;;9.56;100.00;101065.53;5051570;28;20471;-76
2021/03/04 09:25:56;;;;;;;66.23;46.13;;;;;;;9.36;100.00;101059.56;5053831;28;20519;-76
2021/03/04 09:29:05;;;;;;;63.90;43.10;;;;;;;9.51;100.00;101057.16;5053533;28;20425;-76
2021/03/04 09:32:13;;;;;;;66.37;44.40;;;;;;;9.65;100.00;101050.34;5053184;28;20457;-76
2021/03/04 09:35:20;;;;;;;72.73;47.97;;;;;;;9.86;100.00;101043.25;5053322;28;20993;-76
2021/03/04 09:38:29;;;;;;;64.83;45.50;;;;;;;10.27;100.00;101040.28;5053606;28;20429;-76
2021/03/04 09:41:36;;;;;;;68.37;46.30;;;;;;;10.79;100.00;101043.50;5053563;28;20966;-76
2021/03/04 09:44:51;;;;;;;67.90;45.47;;;;;;;10.99;100.00;101041.50;5053772;28;20436;-77
2021/03/04 09:47:58;;;;;;;63.37;43.17;;;;;;;11.19;100.00;101030.00;5052770;28;20944;-76
2021/03/04 09:51:06;;;;;;;53.60;38.67;;;;;;;11.40;100.00;101046.94;5052960;28;20980;-76
2021/03/04 09:54:24;;;;;;;57.63;41.67;;;;;;;11.21;100.00;101048.06;5052636;28;20798;-76
2021/03/04 09:57:31;;;;;;;51.97;38.13;;;;;;;10.80;100.00;101051.22;5053004;28;20564;-76
2021/03/04 10:00:38;;;;;;;49.30;35.47;;;;;;;10.78;100.00;101047.06;5053303;28;20425;-76
2021/03/04 10:03:46;;;;;;;46.23;34.60;;;;;;;10.56;100.00;101047.34;5052915;28;20479;-76
2021/03/04 10:06:53;;;;;;;47.50;35.60;;;;;;;10.85;100.00;101051.81;5045179;28;20432;-74
2021/03/04 10:10:00;;;;;;;43.03;31.00;;;;;;;11.16;100.00;101060.50;5053039;28;20468;-74
2021/03/04 10:13:06;;;;;;;45.90;35.10;;;;;;;11.42;100.00;101060.72;5032102;28;20507;-76
2021/03/04 10:16:14;;;;;;;49.67;34.90;;;;;;;11.43;100.00;101051.16;5033493;28;20540;-76
2021/03/04 10:19:21;;;;;;;48.47;35.07;;;;;;;11.22;100.00;101047.16;5032497;28;20843;-76
2021/03/04 10:22:28;;;;;;;47.10;34.17;;;;;;;10.95;100.00;101052.16;5013013;28;20451;-75
2021/03/04 10:25:35;;;;;;;39.20;29.80;;;;;;;10.99;100.00;101049.28;5013276;28;20989;-75
2021/03/04 10:28:42;;;;;;;42.27;30.37;;;;;;;11.01;100.00;101047.47;5013215;28;20437;-75
2021/03/04 10:31:48;;;;;;;41.03;27.63;;;;;;;11.04;100.00;101046.44;5011229;28;20589;-75
2021/03/04 10:34:56;;;;;;;45.13;29.13;;;;;;;11.00;100.00;101048.38;5012563;28;20875;-75
2021/03/04 10:38:03;;;;;;;38.33;28.40;;;;;;;10.92;100.00;101040.16;5012927;28;20902;-75
2021/03/04 10:41:09;;;;;;;36.90;28.40;;;;;;;10.74;100.00;101041.16;5012889;28;20577;-75
2021/03/04 10:44:16;;;;;;;41.70;31.03;;;;;;;10.62;100.00;101044.44;5012569;28;20801;-75
2021/03/04 10:47:23;;;;;;;42.80;32.30;;;;;;;10.58;100.00;101040.34;5012741;28;20435;-75
2021/03/04 10:50:30;;;;;;;40.00;30.80;;;;;;;10.71;100.00;101032.72;5012525;28;20514;-77
2021/03/04 10:53:37;;;;;;;45.97;33.03;;;;;;;10.97;100.00;101038.13;5012202;28;20478;-75
2021/03/04 10:56:44;;;;;;;41.90;31.60;;;;;;;11.23;100.00;101044.47;5013379;28;20652;-78
2021/03/04 10:59:52;;;;;;;42.73;31.80;;;;;;;11.41;100.00;101037.41;5012694;28;20492;-75
2021/03/04 11:02:58;;;;;;;49.80;33.30;;;;;;;11.38;100.00;101035.78;5012172;28;20994;-75
2021/03/04 11:06:06;;;;;;;45.50;33.77;;;;;;;11.25;100.00;101052.19;5012543;28;20465;-75
2021/03/04 11:09:12;;;;;;;44.43;33.40;;;;;;;11.09;100.00;101043.56;5007152;28;20517;-74
2021/03/04 11:12:19;;;;;;;43.80;33.53;;;;;;;10.98;100.00;101042.41;5025211;28;20465;-74
2021/03/04 11:15:26;;;;;;;49.60;36.60;;;;;;;10.85;100.00;101036.22;5032122;28;20437;-74
2021/03/04 11:18:33;;;;;;;45.80;35.70;;;;;;;10.81;100.00;101039.91;5031502;28;20529;-74
2021/03/04 11:21:43;;;;;;;47.20;35.07;;;;;;;10.76;100.00;101039.34;5030619;28;20491;-75
2021/03/04 11:24:49;;;;;;;48.90;35.60;;;;;;;10.50;100.00;101045.94;5031001;28;20882;-74
2021/03/04 11:27:56;;;;;;;56.80;37.57;;;;;;;10.37;100.00;101039.72;5030950;28;20429;-74
2021/03/04 11:31:03;;;;;;;55.67;39.27;;;;;;;10.30;100.00;101033.22;5030954;28;20478;-74
2021/03/04 11:34:09;;;;;;;50.17;36.67;;;;;;;10.29;100.00;101041.06;5030622;28;20458;-74
2021/03/04 11:37:17;;;;;;;49.43;37.27;;;;;;;10.17;100.00;101032.16;5031202;28;20568;-74
2021/03/04 11:40:24;;;;;;;52.47;37.50;;;;;;;10.26;100.00;101021.28;5030768;28;20434;-75
2021/03/04 11:43:31;;;;;;;54.33;37.33;;;;;;;10.39;100.00;101024.06;5031113;28;20437;-76
2021/03/04 11:46:37;;;;;;;49.67;35.03;;;;;;;10.34;100.00;101020.91;5031455;28;20508;-76
2021/03/04 11:49:44;;;;;;;50.80;35.37;;;;;;;10.14;100.00;101009.78;5031535;28;20520;-76
2021/03/04 11:52:52;;;;;;;52.90;36.97;;;;;;;10.00;100.00;101004.50;5030181;28;20450;-74
2021/03/04 11:55:59;;;;;;;52.00;38.73;;;;;;;10.03;100.00;100999.13;5030829;28;20513;-76
2021/03/04 11:59:06;;;;;;;50.90;37.87;;;;;;;10.08;100.00;100997.13;5030900;28;20926;-76
2021/03/04 12:02:12;;;;;;;53.53;39.20;;;;;;;10.05;100.00;100992.13;5030253;28;20806;-75
2021/03/04 12:05:19;;;;;;;53.47;38.43;;;;;;;9.98;100.00;100988.16;5031827;28;20793;-74
2021/03/04 12:08:27;;;;;;;52.70;36.90;;;;;;;9.86;100.00;100980.19;5030822;28;20430;-75
2021/03/04 12:11:33;;;;;;;53.60;37.67;;;;;;;9.70;100.00;100982.75;5031027;28;20485;-75
2021/03/04 12:14:40;;;;;;;53.17;36.33;;;;;;;9.70;100.00;100975.81;5031708;28;20458;-76
2021/03/04 12:17:47;;;;;;;51.20;36.00;;;;;;;9.65;100.00;100970.00;5031089;28;20434;-74
2021/03/04 12:20:54;;;;;;;54.13;37.40;;;;;;;9.58;100.00;100973.00;5043884;28;20851;-76
2021/03/04 12:24:01;;;;;;;48.17;34.50;;;;;;;9.57;100.00;100966.16;5050530;28;20956;-75
2021/03/04 12:27:08;;;;;;;51.30;36.60;;;;;;;9.35;100.00;100956.03;5052184;28;20502;-74
2021/03/04 12:30:16;;;;;;;53.30;36.70;;;;;;;9.34;100.00;100959.53;5052325;28;20430;-74
2021/03/04 12:33:23;;;;;;;55.40;38.60;;;;;;;9.28;100.00;100965.03;5051424;28;20463;-74
2021/03/04 12:36:31;;;;;;;51.93;36.70;;;;;;;9.22;100.00;100967.94;5052740;28;20901;-74
2021/03/04 12:39:39;;;;;;;54.27;37.90;;;;;;;8.99;100.00;100969.91;5053172;28;20437;-74
2021/03/04 12:42:45;;;;;;;56.13;39.87;;;;;;;8.75;100.00;100965.06;5051565;28;20480;-74
2021/03/04 12:45:52;;;;;;;61.07;39.00;;;;;;;8.55;100.00;100961.66;5051923;28;20479;-74
2021/03/04 12:48:59;;;;;;;50.17;33.70;;;;;;;8.54;100.00;100962.56;5050681;28;20548;-74
2021/03/04 12:52:06;;;;;;;45.80;32.80;;;;;;;8.47;100.00;100953.41;5050901;28;20472;-74
2021/03/04 12:55:14;;;;;;;48.03;33.03;;;;;;;8.45;100.00;100954.41;5051168;28;20500;-74
2021/03/04 12:58:20;;;;;;;34.80;27.10;;;;;;;8.46;100.00;100949.13;5054774;28;20868;-74
2021/03/04 13:01:27;;;;;;;42.60;31.07;;;;;;;8.44;100.00;100944.97;5055609;28;20945;-74
2021/03/04 13:04:34;;;;;;;45.87;30.20;;;;;;;8.45;100.00;100944.91;5055814;28;20470;-74
2021/03/04 13:07:40;;;;;;;29.63;22.90;;;;;;;8.45;100.00;100944.06;5054574;28;20428;-74
2021/03/04 13:10:48;;;;;;;31.00;21.73;;;;;;;8.38;100.00;100940.91;5054310;28;20999;-74
2021/03/04 13:13:55;;;;;;;34.33;21.90;;;;;;;8.25;100.00;100944.94;5053378;28;20512;-75
2021/03/04 13:17:02;;;;;;;34.60;24.20;;;;;;;8.19;100.00;100929.72;5054607;28;20425;-74
2021/03/04 13:20:10;;;;;;;32.20;22.50;;;;;;;8.21;100.00;100925.31;5046864;28;20430;-74
2021/03/04 13:23:17;;;;;;;29.83;21.07;;;;;;;8.22;100.00;100933.91;5033929;28;20450;-74
2021/03/04 13:26:25;;;;;;;30.50;22.70;;;;;;;8.19;100.00;100919.38;5034015;28;20462;-76
2021/03/04 13:29:31;;;;;;;33.93;24.33;;;;;;;8.17;100.00;100939.28;5034824;28;20475;-78
2021/03/04 13:32:38;;;;;;;34.40;23.53;;;;;;;8.11;100.00;100936.97;5033972;28;20545;-74
2021/03/04 13:35:45;;;;;;;25.00;19.70;;;;;;;8.13;100.00;100932.59;5034351;28;20522;-74
2021/03/04 13:38:51;;;;;;;25.67;19.67;;;;;;;8.15;100.00;100929.03;5033907;28;20584;-75
2021/03/04 13:41:59;;;;;;;25.17;18.73;;;;;;;8.14;100.00;100937.69;5033465;28;20575;-75
2021/03/04 13:45:07;;;;;;;19.27;14.90;;;;;;;8.10;100.00;100940.50;5034035;28;20438;-76
2021/03/04 13:48:14;;;;;;;17.33;14.00;;;;;;;8.00;100.00;100939.22;5035132;28;20438;-76
2021/03/04 13:51:21;;;;;;;12.17;10.90;;;;;;;7.87;100.00;100953.56;5035368;28;20516;-76
2021/03/04 13:54:27;;;;;;;14.80;10.90;;;;;;;7.64;100.00;100941.66;5034088;28;20640;-76
2021/03/04 13:57:35;;;;;;;12.00;9.03;;;;;;;7.51;100.00;100943.94;5034972;28;20484;-75
2021/03/04 14:00:42;;;;;;;9.30;7.90;;;;;;;7.42;100.00;100941.78;5033076;28;20491;-76
2021/03/04 14:03:49;;;;;;;14.27;11.10;;;;;;;7.39;100.00;100942.72;5033071;28;20521;-76
2021/03/04 14:06:55;;;;;;;14.37;10.30;;;;;;;7.43;100.00;100937.44;5032947;28;20769;-75
2021/03/04 14:10:03;;;;;;;10.07;7.07;;;;;;;7.49;100.00;100940.59;5033118;28;20484;-75